createdAt,value
2022-12-18T00:01:08.866Z,19.50
2022-12-18T00:03:36.725Z,19.47
2022-12-18T00:06:03.587Z,19.31
2022-12-18T00:08:30.097Z,19.35
2022-12-18T00:11:00.017Z,19.36
2022-12-18T00:13:28.256Z,19.34
2022-12-18T00:15:56.586Z,19.30
2022-12-18T00:18:23.626Z,19.32
2022-12-18T00:20:50.401Z,19.24
2022-12-18T00:23:17.279Z,19.26
2022-12-18T00:25:43.780Z,19.20
2022-12-18T00:28:10.372Z,19.07
2022-12-18T00:30:36.920Z,19.03
2022-12-18T00:33:03.558Z,19.09
2022-12-18T00:35:30.070Z,19.14
2022-12-18T00:37:56.669Z,19.01
2022-12-18T00:40:23.539Z,19.09
2022-12-18T00:42:59.226Z,19.10
2022-12-18T00:45:27.996Z,19.07
2022-12-18T00:47:55.281Z,19.06
2022-12-18T00:50:40.532Z,19.03
2022-12-18T00:53:07.292Z,18.94
2022-12-18T00:55:33.912Z,19.00
2022-12-18T00:58:00.533Z,18.86
2022-12-18T01:00:27.063Z,18.92
2022-12-18T01:02:53.696Z,18.89
2022-12-18T01:05:20.440Z,18.89
2022-12-18T01:07:47.381Z,18.92
2022-12-18T01:10:14.148Z,18.76
2022-12-18T01:12:40.936Z,18.86
2022-12-18T01:15:08.976Z,18.89
2022-12-18T01:17:38.669Z,18.74
2022-12-18T01:20:06.290Z,18.79
2022-12-18T01:22:33.147Z,18.82
2022-12-18T01:25:00.464Z,18.84
2022-12-18T01:27:27.132Z,18.77
2022-12-18T01:29:53.640Z,18.72
2022-12-18T01:32:20.661Z,18.77
2022-12-18T01:34:47.324Z,18.78
2022-12-18T01:37:13.925Z,18.65
2022-12-18T01:39:40.695Z,18.62
2022-12-18T01:42:13.106Z,18.79
2022-12-18T01:45:04.108Z,18.78
2022-12-18T01:47:44.633Z,18.85
2022-12-18T01:50:12.929Z,18.90
2022-12-18T01:52:40.811Z,18.93
2022-12-18T01:55:09.257Z,19.02
2022-12-18T01:57:35.686Z,19.08
2022-12-18T02:00:07.950Z,19.04
2022-12-18T02:02:40.776Z,19.03
2022-12-18T02:05:08.230Z,19.10
2022-12-18T02:07:41.979Z,19.35
2022-12-18T02:10:15.097Z,19.42
2022-12-18T02:12:46.909Z,19.27
2022-12-18T02:15:32.763Z,19.43
2022-12-18T02:18:06.912Z,19.45
2022-12-18T02:20:37.320Z,19.49
2022-12-18T02:23:25.457Z,19.54
2022-12-18T02:26:20.725Z,19.60
2022-12-18T02:28:55.236Z,19.56
2022-12-18T02:31:31.194Z,19.66
2022-12-18T02:34:02.050Z,19.50
2022-12-18T02:36:33.371Z,19.59
2022-12-18T02:39:02.213Z,19.49
2022-12-18T02:41:29.751Z,19.61
2022-12-18T02:44:00.785Z,19.67
2022-12-18T02:46:33.841Z,19.67
2022-12-18T02:49:27.000Z,19.70
2022-12-18T02:52:08.373Z,19.75
2022-12-18T02:54:54.253Z,19.68
2022-12-18T02:57:28.522Z,19.52
2022-12-18T03:00:01.076Z,19.37
2022-12-18T03:02:45.665Z,19.44
2022-12-18T03:05:32.820Z,18.80
2022-12-18T03:08:05.460Z,19.29
2022-12-18T03:10:49.787Z,19.27
2022-12-18T03:13:24.366Z,19.23
2022-12-18T03:15:54.239Z,19.17
2022-12-18T03:18:23.943Z,19.11
2022-12-18T03:20:53.741Z,19.09
2022-12-18T03:23:26.380Z,19.06
2022-12-18T03:25:57.578Z,19.04
2022-12-18T03:28:28.508Z,18.99
2022-12-18T03:31:01.598Z,18.96
2022-12-18T03:33:33.340Z,18.95
2022-12-18T03:35:59.911Z,18.90
2022-12-18T03:38:26.465Z,18.91
2022-12-18T03:41:22.937Z,18.88
2022-12-18T03:44:16.116Z,18.86
2022-12-18T03:46:52.039Z,18.82
2022-12-18T03:49:43.460Z,18.82
2022-12-18T03:52:14.805Z,18.81
2022-12-18T03:54:42.365Z,18.77
2022-12-18T03:57:22.267Z,18.75
2022-12-18T03:59:58.636Z,18.73
2022-12-18T04:02:30.992Z,18.73
2022-12-18T04:05:02.490Z,18.70
2022-12-18T04:07:29.428Z,18.70
2022-12-18T04:09:59.884Z,18.66
2022-12-18T04:12:28.141Z,18.65
2022-12-18T04:14:56.266Z,18.66
2022-12-18T04:17:23.354Z,18.63
2022-12-18T04:19:50.253Z,18.63
2022-12-18T04:22:17.300Z,18.63
2022-12-18T04:24:47.578Z,18.61
2022-12-18T04:27:22.693Z,18.60
2022-12-18T04:29:51.055Z,18.58
2022-12-18T04:32:18.876Z,18.59
2022-12-18T04:34:45.499Z,18.56
2022-12-18T04:37:12.316Z,18.57
2022-12-18T04:39:39.468Z,18.56
2022-12-18T04:42:11.982Z,18.54
2022-12-18T04:44:38.656Z,18.48
2022-12-18T04:47:05.159Z,18.52
2022-12-18T04:49:31.740Z,18.51
2022-12-18T04:51:58.305Z,18.49
2022-12-18T04:54:24.888Z,18.48
2022-12-18T04:56:51.371Z,18.46
2022-12-18T04:59:17.970Z,18.47
2022-12-18T05:01:44.620Z,18.46
2022-12-18T05:04:11.473Z,18.45
2022-12-18T05:06:38.100Z,18.42
2022-12-18T05:09:04.733Z,18.42
2022-12-18T05:11:32.580Z,18.40
2022-12-18T05:13:59.210Z,18.42
2022-12-18T05:16:26.047Z,18.41
2022-12-18T05:18:52.775Z,18.39
2022-12-18T05:21:19.382Z,18.38
2022-12-18T05:23:46.026Z,18.38
2022-12-18T05:26:17.051Z,18.37
2022-12-18T05:28:43.823Z,18.38
2022-12-18T05:31:10.936Z,18.37
2022-12-18T05:33:38.116Z,18.37
2022-12-18T05:36:07.286Z,18.36
2022-12-18T05:38:35.754Z,18.34
2022-12-18T05:41:02.506Z,18.34
2022-12-18T05:43:29.682Z,18.35
2022-12-18T05:45:57.109Z,18.32
2022-12-18T05:48:23.706Z,18.31
2022-12-18T05:50:51.138Z,18.29
2022-12-18T05:53:20.323Z,18.30
2022-12-18T05:55:47.444Z,18.29
2022-12-18T05:58:15.289Z,18.29
2022-12-18T06:00:46.261Z,18.27
2022-12-18T06:03:14.348Z,18.27
2022-12-18T06:05:43.506Z,18.27
2022-12-18T06:08:10.728Z,18.26
2022-12-18T06:10:38.176Z,18.27
2022-12-18T06:13:05.112Z,18.26
2022-12-18T06:15:31.681Z,18.26
2022-12-18T06:17:58.521Z,18.24
2022-12-18T06:20:29.092Z,18.25
2022-12-18T06:22:58.504Z,18.26
2022-12-18T06:25:25.038Z,18.29
2022-12-18T06:27:51.597Z,18.32
2022-12-18T06:30:18.288Z,18.35
2022-12-18T06:32:45.496Z,18.36
2022-12-18T06:35:15.103Z,18.39
2022-12-18T06:37:41.740Z,18.40
2022-12-18T06:40:08.767Z,18.43
2022-12-18T06:42:35.295Z,18.45
2022-12-18T06:45:01.941Z,18.48
2022-12-18T06:47:28.742Z,18.52
2022-12-18T06:49:55.309Z,18.53
2022-12-18T06:52:21.863Z,18.57
2022-12-18T06:54:48.455Z,18.59
2022-12-18T06:57:14.918Z,18.62
2022-12-18T06:59:41.481Z,18.65
2022-12-18T07:02:12.437Z,18.68
2022-12-18T07:04:39.019Z,18.70
2022-12-18T07:07:05.534Z,18.73
2022-12-18T07:09:32.085Z,18.75
2022-12-18T07:11:58.606Z,18.77
2022-12-18T07:14:26.060Z,18.79
2022-12-18T07:16:53.061Z,18.80
2022-12-18T07:19:20.008Z,18.82
2022-12-18T07:21:46.588Z,18.83
2022-12-18T07:24:13.208Z,18.85
2022-12-18T07:26:39.766Z,18.87
2022-12-18T07:29:06.284Z,18.89
2022-12-18T07:31:32.939Z,18.91
2022-12-18T07:33:59.665Z,18.93
2022-12-18T07:36:26.539Z,18.93
2022-12-18T07:38:53.873Z,18.94
2022-12-18T07:41:21.111Z,18.97
2022-12-18T07:43:47.994Z,18.99
2022-12-18T07:46:15.844Z,18.99
2022-12-18T07:48:43.496Z,19.03
2022-12-18T07:51:12.084Z,19.05
2022-12-18T07:53:39.159Z,19.05
2022-12-18T07:58:55.842Z,19.07
2022-12-18T08:01:22.544Z,19.11
2022-12-18T08:03:49.507Z,19.11
2022-12-18T08:06:18.445Z,19.13
2022-12-18T08:08:45.142Z,19.17
2022-12-18T08:11:11.712Z,19.12
2022-12-18T08:13:38.812Z,19.13
2022-12-18T08:16:07.826Z,19.14
2022-12-18T08:18:35.862Z,19.16
2022-12-18T08:21:13.989Z,19.18
2022-12-18T08:23:43.109Z,19.20
2022-12-18T08:26:11.521Z,19.23
2022-12-18T08:28:38.515Z,19.25
2022-12-18T08:31:05.643Z,19.25
2022-12-18T08:33:33.223Z,19.25
2022-12-18T08:36:01.190Z,19.31
2022-12-18T08:38:27.855Z,19.33
2022-12-18T08:41:01.560Z,19.34
2022-12-18T08:43:46.627Z,19.37
2022-12-18T08:46:13.560Z,19.38
2022-12-18T08:48:42.776Z,19.41
2022-12-18T08:51:10.562Z,19.42
2022-12-18T08:53:38.365Z,19.44
2022-12-18T08:56:05.804Z,19.46
2022-12-18T08:58:32.387Z,19.46
2022-12-18T09:01:03.957Z,19.47
2022-12-18T09:03:30.624Z,19.46
2022-12-18T09:05:57.604Z,19.48
2022-12-18T09:08:24.337Z,19.48
2022-12-18T09:10:51.362Z,19.49
2022-12-18T09:13:18.837Z,19.47
2022-12-18T09:15:48.562Z,19.46
2022-12-18T09:18:16.949Z,19.46
2022-12-18T09:20:43.426Z,19.46
2022-12-18T09:23:10.168Z,19.46
2022-12-18T09:25:37.674Z,19.45
2022-12-18T09:28:11.747Z,19.45
2022-12-18T09:30:40.062Z,19.45
2022-12-18T09:33:06.592Z,19.44
2022-12-18T09:35:34.046Z,19.45
2022-12-18T09:38:00.639Z,19.41
2022-12-18T09:40:37.645Z,19.42
2022-12-18T09:43:05.899Z,19.41
2022-12-18T09:45:42.098Z,19.42
2022-12-18T09:48:20.160Z,19.40
2022-12-18T09:50:47.696Z,19.38
2022-12-18T09:53:20.389Z,19.36
2022-12-18T09:55:49.004Z,19.36
2022-12-18T09:58:20.549Z,19.31
2022-12-18T10:00:47.316Z,19.35
2022-12-18T10:03:16.306Z,19.34
2022-12-18T10:06:02.208Z,19.35
2022-12-18T10:08:31.756Z,19.36
2022-12-18T10:11:05.020Z,19.36
2022-12-18T10:13:34.468Z,19.36
2022-12-18T10:16:12.660Z,19.37
2022-12-18T10:19:07.344Z,19.35
2022-12-18T10:21:58.323Z,19.33
2022-12-18T10:24:34.988Z,19.29
